Terminal Aerodrome Forecast
Issued by NWS

Home | Current Version | Previous Version | Text Only | Print | Product List | Glossary On
Versions: 1 2 3 4 5 6 7 8 9 10 11 12
000
FTUS45 KRIW 221700
TAFRKS
TAF
KRKS 221720Z 2218/2318 28025G35KT P6SM VCSH SCT020 BKN040
     FM230200 33017G25KT P6SM VCSH SCT035 BKN070
     FM230700 25011KT P6SM SCT070=

USA.gov is the U.S. government's official web portal to all federal, state and local government web resources and services.